createdAt,value
2019-03-29T00:02:26.023Z,3.70
2019-03-29T00:05:07.843Z,3.90
2019-03-29T00:07:48.538Z,3.70
2019-03-29T00:16:52.598Z,3.60
2019-03-29T00:19:36.322Z,2.93
2019-03-29T00:22:18.846Z,3.80
2019-03-29T00:25:00.827Z,3.97
2019-03-29T00:27:44.231Z,2.70
2019-03-29T00:30:27.459Z,3.27
2019-03-29T00:33:09.714Z,2.97
2019-03-29T00:35:51.940Z,3.40
2019-03-29T00:38:34.190Z,3.10
2019-03-29T00:41:16.309Z,3.60
2019-03-29T00:43:56.891Z,3.20
2019-03-29T00:49:54.074Z,3.37
2019-03-29T00:52:36.240Z,3.00
2019-03-29T00:55:18.690Z,2.80
2019-03-29T00:58:01.539Z,3.13
2019-03-29T01:00:43.843Z,3.47
2019-03-29T01:03:26.447Z,3.43
2019-03-29T01:06:08.642Z,3.20
2019-03-29T01:08:50.392Z,3.13
2019-03-29T01:11:21.344Z,3.47
2019-03-29T01:20:26.819Z,3.63
2019-03-29T01:23:53.660Z,3.23
2019-03-29T01:26:39.783Z,3.43
2019-03-29T01:29:22.118Z,3.00
2019-03-29T01:32:04.083Z,2.83
2019-03-29T01:34:44.872Z,3.77
2019-03-29T01:40:35.543Z,3.60
2019-03-29T01:43:16.306Z,3.20
2019-03-29T01:45:58.125Z,3.70
2019-03-29T01:48:39.899Z,3.80
2019-03-29T01:51:21.875Z,3.60
2019-03-29T01:54:04.477Z,3.97
2019-03-29T01:56:46.798Z,3.23
2019-03-29T01:59:29.099Z,3.30
2019-03-29T02:02:11.502Z,3.13
2019-03-29T02:04:52.324Z,3.73
2019-03-29T02:08:01.243Z,3.97
2019-03-29T02:14:45.062Z,3.67
2019-03-29T02:17:45.624Z,2.97
2019-03-29T02:20:27.843Z,3.87
2019-03-29T02:23:08.587Z,3.33
2019-03-29T02:25:58.347Z,4.07
2019-03-29T02:28:59.911Z,3.83
2019-03-29T02:31:42.742Z,3.47
2019-03-29T02:34:23.427Z,3.50
2019-03-29T02:37:05.844Z,3.90
2019-03-29T02:39:47.872Z,3.87
2019-03-29T02:42:29.847Z,3.43
2019-03-29T02:45:10.590Z,3.63
2019-03-29T02:53:56.657Z,3.87
2019-03-29T02:59:30.216Z,3.53
2019-03-29T03:02:11.011Z,4.30
2019-03-29T03:08:08.333Z,3.73
2019-03-29T03:10:50.207Z,4.23
2019-03-29T03:13:32.862Z,4.53
2019-03-29T03:16:14.982Z,4.33
2019-03-29T03:18:57.550Z,4.40
2019-03-29T03:21:39.498Z,4.78
2019-03-29T03:24:22.843Z,4.13
2019-03-29T03:27:04.565Z,4.40
2019-03-29T03:29:48.085Z,3.90
2019-03-29T03:32:17.916Z,3.67
2019-03-29T03:35:00.001Z,4.93
2019-03-29T03:37:41.834Z,4.77
2019-03-29T03:40:23.795Z,4.43
2019-03-29T03:43:05.640Z,4.60
2019-03-29T03:45:47.718Z,4.67
2019-03-29T03:48:30.473Z,4.00
2019-03-29T03:51:12.403Z,4.20
2019-03-29T03:53:54.184Z,4.17
2019-03-29T03:56:36.163Z,4.10
2019-03-29T03:59:17.857Z,4.30
2019-03-29T04:02:00.011Z,4.23
2019-03-29T04:04:40.795Z,4.70
2019-03-29T04:13:50.329Z,4.27
2019-03-29T04:16:32.563Z,4.30
2019-03-29T04:19:15.144Z,4.40
2019-03-29T04:21:55.981Z,4.60
2019-03-29T04:24:45.924Z,4.87
2019-03-29T04:27:47.994Z,4.63
2019-03-29T04:34:10.993Z,4.73
2019-03-29T04:40:27.783Z,5.33
2019-03-29T04:43:09.811Z,5.50
2019-03-29T04:45:51.840Z,5.23
2019-03-29T04:48:33.911Z,5.37
2019-03-29T04:51:16.340Z,5.20
2019-03-29T04:53:58.059Z,5.77
2019-03-29T04:56:40.087Z,5.70
2019-03-29T04:59:22.339Z,5.60
2019-03-29T05:02:04.179Z,5.80
2019-03-29T05:04:46.299Z,5.90
2019-03-29T05:07:27.200Z,5.80
2019-03-29T05:10:20.584Z,6.47
2019-03-29T05:12:52.995Z,6.10
2019-03-29T05:15:35.200Z,6.67
2019-03-29T05:18:17.412Z,6.50
2019-03-29T05:20:59.278Z,5.83
2019-03-29T05:23:41.246Z,6.57
2019-03-29T05:26:25.458Z,5.80
2019-03-29T05:29:06.951Z,6.23
2019-03-29T05:31:48.827Z,6.20
2019-03-29T05:34:31.097Z,6.60
2019-03-29T05:37:13.703Z,6.13
2019-03-29T05:39:56.329Z,6.57
2019-03-29T05:42:38.111Z,6.43
2019-03-29T05:45:19.863Z,5.83
2019-03-29T05:48:02.479Z,7.27
2019-03-29T05:50:43.119Z,6.37
2019-03-29T05:53:25.566Z,6.93
2019-03-29T05:56:07.594Z,6.00
2019-03-29T05:58:49.607Z,6.47
2019-03-29T06:01:20.755Z,5.90
2019-03-29T06:13:54.351Z,5.77
2019-03-29T06:16:44.161Z,5.73
2019-03-29T06:19:26.531Z,6.13
2019-03-29T06:22:08.704Z,6.53
2019-03-29T06:24:50.910Z,5.37
2019-03-29T06:27:33.287Z,5.83
2019-03-29T06:30:15.737Z,6.37
2019-03-29T06:32:59.361Z,6.00
2019-03-29T06:35:41.671Z,5.77
2019-03-29T06:38:24.087Z,6.07
2019-03-29T06:41:06.488Z,6.00
2019-03-29T06:43:48.755Z,5.50
2019-03-29T06:46:30.992Z,5.63
2019-03-29T06:49:16.479Z,5.70
2019-03-29T06:51:58.818Z,6.53
2019-03-29T06:54:40.939Z,5.90
2019-03-29T06:57:27.989Z,6.03
2019-03-29T07:00:10.301Z,6.40
2019-03-29T07:02:52.639Z,5.60
2019-03-29T07:05:34.572Z,6.00
2019-03-29T07:08:16.965Z,6.00
2019-03-29T07:10:58.923Z,5.97
2019-03-29T07:13:40.640Z,6.17
2019-03-29T07:16:22.474Z,6.20
2019-03-29T07:19:05.293Z,5.83
2019-03-29T07:21:47.027Z,6.20
2019-03-29T07:24:29.119Z,5.80
2019-03-29T07:27:11.231Z,6.50
2019-03-29T07:29:53.077Z,6.40
2019-03-29T07:32:34.883Z,6.10
2019-03-29T07:35:17.484Z,6.13
2019-03-29T07:37:59.967Z,6.57
2019-03-29T07:40:42.543Z,7.00
2019-03-29T07:43:24.351Z,7.70
2019-03-29T07:46:05.251Z,8.50
2019-03-29T08:01:20.296Z,10.47
2019-03-29T08:04:02.633Z,10.63
2019-03-29T08:06:46.467Z,11.20
2019-03-29T08:09:27.402Z,13.23
2019-03-29T08:12:10.206Z,12.60
2019-03-29T08:14:52.499Z,13.80
2019-03-29T08:17:35.036Z,13.67
2019-03-29T08:20:40.205Z,12.30
2019-03-29T08:23:02.667Z,15.30
2019-03-29T08:25:43.694Z,14.60
2019-03-29T08:34:55.131Z,17.63
2019-03-29T08:40:33.533Z,17.07
2019-03-29T08:43:15.524Z,17.70
2019-03-29T08:45:57.852Z,18.67
2019-03-29T08:48:39.967Z,18.60
2019-03-29T08:51:22.287Z,18.03
2019-03-29T08:54:04.799Z,18.63
2019-03-29T08:56:46.683Z,21.00
2019-03-29T08:59:29.061Z,19.60
2019-03-29T09:02:30.758Z,20.27
2019-03-29T09:08:15.487Z,19.87
2019-03-29T09:10:57.430Z,20.23
2019-03-29T09:13:39.943Z,19.27
2019-03-29T09:20:01.645Z,20.63
2019-03-29T09:22:43.467Z,21.13
2019-03-29T09:25:25.883Z,20.30
2019-03-29T09:28:08.039Z,19.43
2019-03-29T09:30:57.004Z,17.83
2019-03-29T09:33:38.827Z,19.10
2019-03-29T09:36:21.303Z,18.93
2019-03-29T09:41:46.803Z,17.47
2019-03-29T09:44:29.851Z,18.90
2019-03-29T09:47:11.690Z,21.70
2019-03-29T09:53:22.048Z,21.47
2019-03-29T09:56:04.503Z,23.23
2019-03-29T09:58:46.512Z,21.53
2019-03-29T10:01:28.385Z,24.17
2019-03-29T10:04:11.420Z,25.27
2019-03-29T10:06:53.955Z,25.20
2019-03-29T10:09:36.603Z,21.57
2019-03-29T10:12:18.947Z,21.73
2019-03-29T10:18:40.049Z,22.27
2019-03-29T10:21:22.119Z,21.97
2019-03-29T10:24:04.004Z,21.60
2019-03-29T10:26:47.685Z,21.83
2019-03-29T10:29:29.451Z,20.20
2019-03-29T10:32:11.715Z,20.97
2019-03-29T10:34:54.028Z,20.77
2019-03-29T10:37:34.890Z,19.37
2019-03-29T10:40:43.657Z,18.87
2019-03-29T10:43:25.944Z,18.90
2019-03-29T10:46:07.756Z,16.80
2019-03-29T10:48:50.230Z,17.93
2019-03-29T10:51:21.264Z,18.63
2019-03-29T10:54:11.016Z,18.60
2019-03-29T10:57:12.133Z,18.00
2019-03-29T10:59:54.347Z,17.90
2019-03-29T11:02:37.456Z,17.83
2019-03-29T11:09:01.271Z,15.67
2019-03-29T11:11:43.023Z,15.87
2019-03-29T11:14:24.980Z,15.07
2019-03-29T11:17:07.328Z,16.90
2019-03-29T11:22:34.105Z,14.50
2019-03-29T11:25:16.008Z,14.37
2019-03-29T11:27:58.479Z,13.70
2019-03-29T11:30:43.001Z,14.07
2019-03-29T11:33:24.447Z,14.57
2019-03-29T11:36:06.699Z,13.03
2019-03-29T11:38:47.480Z,13.00
2019-03-29T11:41:38.403Z,14.10
2019-03-29T11:44:20.062Z,12.73
2019-03-29T11:47:02.691Z,11.93
2019-03-29T11:49:44.777Z,13.20
2019-03-29T11:52:27.612Z,13.23
2019-03-29T11:55:09.814Z,12.93
2019-03-29T11:57:51.666Z,12.37
2019-03-29T12:00:53.335Z,12.97
2019-03-29T12:03:25.990Z,11.60
2019-03-29T12:12:27.389Z,11.30
2019-03-29T12:15:08.020Z,11.00
2019-03-29T12:17:49.832Z,10.77
2019-03-29T12:20:32.363Z,10.13
2019-03-29T12:23:14.152Z,9.50
2019-03-29T12:25:56.296Z,10.23
2019-03-29T12:32:17.539Z,9.53
2019-03-29T12:34:59.459Z,11.03
2019-03-29T12:37:41.452Z,10.83
2019-03-29T12:40:23.585Z,10.93
2019-03-29T12:43:06.080Z,10.93
2019-03-29T12:45:48.710Z,11.50
2019-03-29T12:51:12.892Z,11.00
2019-03-29T12:53:55.756Z,11.87
2019-03-29T12:56:38.143Z,11.47
2019-03-29T12:59:20.993Z,11.23
2019-03-29T13:02:01.896Z,11.37
2019-03-29T13:08:07.064Z,10.93
2019-03-29T13:14:30.441Z,11.30
2019-03-29T13:17:32.088Z,11.83
2019-03-29T13:20:13.847Z,10.83
2019-03-29T13:22:55.928Z,17.07
2019-03-29T13:25:38.609Z,10.17
2019-03-29T13:28:20.614Z,10.50
2019-03-29T13:31:03.182Z,11.10
2019-03-29T13:33:45.238Z,10.23
2019-03-29T13:36:27.396Z,10.57
2019-03-29T13:39:08.899Z,10.83
2019-03-29T13:41:59.107Z,10.87
2019-03-29T13:45:02.476Z,11.73
2019-03-29T13:47:43.218Z,12.23
2019-03-29T13:53:35.867Z,11.60
2019-03-29T13:56:17.975Z,11.87
2019-03-29T13:59:00.448Z,11.57
2019-03-29T14:01:43.024Z,10.63
2019-03-29T14:04:23.853Z,10.53
2019-03-29T14:10:45.238Z,12.07
2019-03-29T14:13:47.195Z,12.43
2019-03-29T14:16:29.330Z,12.13
2019-03-29T14:19:11.273Z,12.60
2019-03-29T14:21:53.487Z,11.00
2019-03-29T14:24:24.518Z,12.27
2019-03-29T14:30:17.505Z,11.70
2019-03-29T14:32:58.399Z,10.90
2019-03-29T14:35:40.239Z,10.70
2019-03-29T14:38:22.939Z,11.00
2019-03-29T14:41:05.562Z,10.50
2019-03-29T14:43:48.073Z,10.93
2019-03-29T14:46:30.025Z,10.93
2019-03-29T14:49:12.437Z,11.07
2019-03-29T14:51:54.711Z,11.20
2019-03-29T14:54:36.495Z,10.37
2019-03-29T14:57:18.543Z,10.97
2019-03-29T15:00:00.474Z,12.03
2019-03-29T15:02:42.387Z,12.30
2019-03-29T15:05:24.359Z,13.07
2019-03-29T15:08:06.859Z,12.17
2019-03-29T15:10:47.672Z,11.20
2019-03-29T15:16:38.879Z,10.93
2019-03-29T15:19:21.059Z,12.20
2019-03-29T15:22:22.651Z,12.90
2019-03-29T15:25:06.046Z,12.23
2019-03-29T15:27:48.599Z,12.93
2019-03-29T15:30:31.726Z,12.67
2019-03-29T15:36:40.878Z,13.50
2019-03-29T15:39:23.095Z,12.17
2019-03-29T15:42:07.928Z,13.13
2019-03-29T15:44:49.759Z,12.97
2019-03-29T15:50:45.170Z,13.10
2019-03-29T15:53:27.006Z,12.43
2019-03-29T15:56:28.627Z,12.20
2019-03-29T16:03:09.371Z,13.33
2019-03-29T16:09:16.287Z,11.67
2019-03-29T16:15:11.151Z,11.83
2019-03-29T16:17:52.911Z,12.70
2019-03-29T16:24:00.158Z,12.60
2019-03-29T16:30:01.225Z,12.43
2019-03-29T16:33:01.991Z,13.17
2019-03-29T16:35:44.106Z,11.97
2019-03-29T16:38:24.868Z,12.33
2019-03-29T16:50:52.175Z,13.57
2019-03-29T16:56:18.857Z,13.63
2019-03-29T16:59:00.884Z,13.87
2019-03-29T17:01:43.303Z,13.67
2019-03-29T17:04:26.371Z,14.03
2019-03-29T17:07:08.663Z,13.63
2019-03-29T17:09:49.383Z,13.80
2019-03-29T17:12:39.983Z,13.98
2019-03-29T17:15:22.335Z,15.20
2019-03-29T17:18:04.467Z,14.70
2019-03-29T17:20:46.495Z,14.83
2019-03-29T17:44:58.757Z,16.20
2019-03-29T18:51:51.203Z,16.60
2019-03-29T18:54:33.739Z,17.37
2019-03-29T18:57:15.915Z,17.53
2019-03-29T19:03:26.959Z,17.20
2019-03-29T19:13:04.588Z,17.57
2019-03-29T19:19:09.792Z,17.60
2019-03-29T19:24:54.851Z,18.07
2019-03-29T19:31:11.126Z,18.53
2019-03-29T19:37:05.738Z,20.87
2019-03-29T19:42:59.181Z,20.50
2019-03-29T19:45:44.646Z,20.17
2019-03-29T19:48:33.740Z,20.40
2019-03-29T19:51:25.896Z,21.37
2019-03-29T19:54:17.667Z,20.20
2019-03-29T20:03:50.491Z,20.53
2019-03-29T20:06:40.531Z,20.43
2019-03-29T20:15:25.061Z,20.23
2019-03-29T20:18:07.544Z,21.50
2019-03-29T20:20:54.218Z,20.30
2019-03-29T20:23:36.030Z,21.50
2019-03-29T20:26:17.811Z,21.60
2019-03-29T20:29:00.071Z,23.23
2019-03-29T20:38:30.981Z,21.53
2019-03-29T20:41:11.707Z,23.37
2019-03-29T20:44:01.718Z,23.63
2019-03-29T20:53:32.212Z,22.90
2019-03-29T20:56:21.955Z,23.10
2019-03-29T20:59:23.651Z,22.37
2019-03-29T21:02:11.327Z,22.50
2019-03-29T21:04:53.779Z,21.93
2019-03-29T21:07:34.531Z,22.40
2019-03-29T21:17:08.007Z,22.53
2019-03-29T21:19:50.459Z,23.57
2019-03-29T21:22:32.177Z,23.97
2019-03-29T21:25:31.953Z,22.80
2019-03-29T21:33:55.193Z,23.63
2019-03-29T21:36:37.263Z,23.50
2019-03-29T21:39:17.834Z,24.03
2019-03-29T21:45:38.414Z,23.20
2019-03-29T21:48:28.670Z,24.07
2019-03-29T21:51:07.655Z,22.70
2019-03-29T21:53:50.099Z,22.83
2019-03-29T21:56:32.546Z,22.37
2019-03-29T21:59:15.231Z,22.87
2019-03-29T22:05:03.802Z,23.20
2019-03-29T22:07:44.748Z,22.80
2019-03-29T22:13:26.074Z,22.47
2019-03-29T22:19:18.749Z,21.57
2019-03-29T22:22:08.711Z,22.50
2019-03-29T22:25:10.127Z,22.40
2019-03-29T22:27:52.239Z,21.30
2019-03-29T22:30:33.127Z,21.83
2019-03-29T22:40:11.537Z,21.60
2019-03-29T22:43:12.806Z,20.87
2019-03-29T22:46:02.699Z,20.83
2019-03-29T22:48:52.270Z,20.80
2019-03-29T22:51:36.314Z,21.87
2019-03-29T22:54:19.943Z,20.30
2019-03-29T22:57:02.305Z,21.70
2019-03-29T22:59:43.138Z,18.83
2019-03-29T23:06:01.699Z,19.20
2019-03-29T23:12:24.260Z,19.23
2019-03-29T23:15:06.403Z,18.23
2019-03-29T23:17:48.883Z,19.17
2019-03-29T23:20:31.175Z,19.37
2019-03-29T23:23:13.254Z,19.50
2019-03-29T23:25:55.555Z,17.90
2019-03-29T23:28:26.504Z,18.87
2019-03-29T23:35:12.930Z,18.20
2019-03-29T23:38:29.391Z,19.20
2019-03-29T23:41:11.710Z,18.87
2019-03-29T23:43:53.986Z,20.07
2019-03-29T23:46:36.006Z,19.00
2019-03-29T23:49:21.183Z,18.93
2019-03-29T23:52:01.426Z,20.73
2019-03-29T23:54:43.460Z,18.97
2019-03-29T23:57:25.531Z,20.43
